Time;durP1;ratioP1;P1;durP2;ratioP2;P2;SDS_P1;SDS_P2;PMS_P1;PMS_P2;Temp;Humidity;BMP_temperature;BMP_pressure;BME280_temperature;BME280_humidity;BME280_pressure;Samples;Min_cycle;Max_cycle;Signal;HPM_P1;HPM_P2
2021/07/13 00:01:58;;;;;;;4.40;4.00;;;24.80;99.90;;;;;;5046899;28;20543;-77
2021/07/13 00:04:26;;;;;;;6.17;3.77;;;24.90;99.90;;;;;;5045053;28;20451;-79
2021/07/13 00:06:53;;;;;;;4.10;3.80;;;24.80;99.90;;;;;;5033400;28;20890;-78
2021/07/13 00:09:20;;;;;;;4.10;3.80;;;24.80;99.90;;;;;;5033400;28;20451;-78
2021/07/13 00:11:47;;;;;;;4.60;3.67;;;24.80;99.90;;;;;;5042419;28;20529;-79
2021/07/13 00:14:14;;;;;;;3.57;3.17;;;24.80;99.90;;;;;;5033234;28;20853;-79
2021/07/13 00:16:41;;;;;;;3.77;3.47;;;24.70;99.90;;;;;;5036811;28;20482;-79
2021/07/13 00:19:07;;;;;;;3.63;3.33;;;24.70;99.90;;;;;;5042536;28;20754;-78
2021/07/13 00:21:36;;;;;;;3.87;3.57;;;24.70;99.90;;;;;;5053017;28;20449;-79
2021/07/13 00:24:03;;;;;;;4.43;4.03;;;24.70;99.90;;;;;;5048306;28;20524;-79
2021/07/13 00:26:30;;;;;;;4.53;4.13;;;24.70;99.90;;;;;;5034404;28;20454;-79
2021/07/13 00:28:56;;;;;;;4.30;4.00;;;24.70;99.90;;;;;;5051579;28;20509;-79
2021/07/13 00:31:23;;;;;;;3.80;3.50;;;24.70;99.90;;;;;;5045049;28;20758;-79
2021/07/13 00:33:50;;;;;;;4.03;3.63;;;24.70;99.90;;;;;;5052793;28;20438;-78
2021/07/13 00:36:17;;;;;;;4.63;4.33;;;24.60;99.90;;;;;;5037486;28;20447;-77
2021/07/13 00:38:45;;;;;;;4.17;3.50;;;24.60;99.90;;;;;;5043083;28;20458;-77
2021/07/13 00:41:11;;;;;;;3.90;3.60;;;24.60;99.90;;;;;;5041907;28;20474;-78
2021/07/13 00:43:38;;;;;;;4.40;4.00;;;24.60;99.90;;;;;;5052680;28;20500;-81
2021/07/13 00:46:05;;;;;;;3.73;3.43;;;24.60;99.90;;;;;;5049936;28;20442;-77
2021/07/13 00:48:31;;;;;;;4.70;4.00;;;24.60;99.90;;;;;;5052027;28;20503;-78
2021/07/13 00:51:01;;;;;;;4.17;3.87;;;24.60;99.90;;;;;;5037738;28;20458;-80
2021/07/13 00:53:29;;;;;;;3.50;3.20;;;24.60;99.90;;;;;;5033485;28;20913;-80
2021/07/13 00:55:57;;;;;;;3.83;3.50;;;24.60;99.90;;;;;;5046783;28;20527;-79
2021/07/13 00:58:24;;;;;;;3.93;3.63;;;24.60;99.90;;;;;;5046363;28;20779;-80
2021/07/13 01:00:51;;;;;;;4.70;4.30;;;24.60;99.90;;;;;;5038679;28;20512;-80
2021/07/13 01:03:18;;;;;;;4.00;3.53;;;24.60;99.90;;;;;;5045169;28;20857;-80
2021/07/13 01:05:46;;;;;;;4.10;3.80;;;24.50;99.90;;;;;;5033441;28;20790;-79
2021/07/13 01:08:29;;;;;;;4.50;4.10;;;24.50;99.90;;;;;;5033812;28;20447;-79
2021/07/13 01:11:07;;;;;;;4.63;4.33;;;24.50;99.90;;;;;;5042425;28;20704;-79
2021/07/13 01:13:39;;;;;;;4.63;4.23;;;24.50;99.90;;;;;;5045593;28;20450;-79
2021/07/13 01:16:12;;;;;;;4.40;4.00;;;24.50;99.90;;;;;;5044532;28;20478;-79
2021/07/13 01:18:45;;;;;;;4.13;3.73;;;24.50;99.90;;;;;;5050938;28;20442;-80
2021/07/13 01:21:48;;;;;;;4.70;4.40;;;24.50;99.90;;;;;;5031871;28;20455;-79
2021/07/13 01:24:38;;;;;;;4.67;4.27;;;24.50;99.90;;;;;;5028369;28;21011;-79
2021/07/13 01:27:27;;;;;;;4.00;3.70;;;24.50;99.90;;;;;;5047872;28;20453;-79
2021/07/13 01:29:59;;;;;;;4.10;3.80;;;24.50;99.90;;;;;;5051136;28;20532;-80
2021/07/13 01:32:29;;;;;;;4.13;3.83;;;24.40;99.90;;;;;;5052058;28;21280;-80
2021/07/13 01:35:04;;;;;;;3.97;3.57;;;24.40;99.90;;;;;;5043806;28;20542;-79
2021/07/13 01:37:31;;;;;;;4.93;4.53;;;24.40;99.90;;;;;;5033407;28;20905;-79
2021/07/13 01:40:00;;;;;;;4.00;3.70;;;24.40;99.90;;;;;;5047450;28;20460;-80
2021/07/13 01:42:29;;;;;;;4.67;4.37;;;24.40;99.90;;;;;;5039429;28;20490;-80
2021/07/13 01:45:00;;;;;;;3.87;3.57;;;24.40;99.90;;;;;;5032675;28;20459;-79
2021/07/13 01:47:27;;;;;;;4.00;3.70;;;24.40;99.90;;;;;;5032512;28;20801;-79
2021/07/13 01:49:54;;;;;;;4.67;4.27;;;24.40;99.90;;;;;;5037066;28;20566;-80
2021/07/13 01:52:21;;;;;;;4.80;4.40;;;24.30;99.90;;;;;;5052129;28;20829;-79
2021/07/13 01:54:48;;;;;;;4.70;4.40;;;24.30;99.90;;;;;;5047085;28;20805;-79
2021/07/13 01:57:16;;;;;;;4.83;4.40;;;24.30;99.90;;;;;;5053084;28;20839;-80
2021/07/13 01:59:46;;;;;;;4.40;4.10;;;24.30;99.90;;;;;;5051135;28;20778;-77
2021/07/13 02:02:15;;;;;;;4.00;3.70;;;24.30;99.90;;;;;;5032699;28;20447;-78
2021/07/13 02:04:43;;;;;;;4.47;4.17;;;24.30;99.90;;;;;;5048371;28;20454;-78
2021/07/13 02:07:11;;;;;;;4.83;4.43;;;24.30;99.90;;;;;;5041600;28;20450;-78
2021/07/13 02:09:40;;;;;;;4.53;4.23;;;24.30;99.90;;;;;;5044219;28;20451;-77
2021/07/13 02:12:08;;;;;;;5.27;4.37;;;24.30;99.90;;;;;;5033180;28;20529;-78
2021/07/13 02:14:35;;;;;;;5.23;4.83;;;24.30;99.90;;;;;;5037867;28;20442;-78
2021/07/13 02:17:02;;;;;;;4.40;4.10;;;24.30;99.90;;;;;;5052464;28;20446;-79
2021/07/13 02:19:30;;;;;;;5.17;4.77;;;24.30;99.90;;;;;;5045998;28;20438;-78
2021/07/13 02:21:57;;;;;;;5.03;4.63;;;24.20;99.90;;;;;;5036797;28;20814;-78
2021/07/13 02:24:25;;;;;;;5.20;4.80;;;24.20;99.90;;;;;;5032303;28;20861;-78
2021/07/13 02:26:53;;;;;;;4.23;3.93;;;24.20;99.90;;;;;;5051027;28;20450;-78
2021/07/13 02:29:25;;;;;;;4.23;3.93;;;24.20;99.90;;;;;;5037179;28;20477;-78
2021/07/13 02:31:56;;;;;;;4.30;4.00;;;24.20;99.90;;;;;;5046596;28;20446;-78
2021/07/13 02:34:28;;;;;;;4.87;4.47;;;24.20;99.90;;;;;;5032295;28;20443;-78
2021/07/13 02:36:59;;;;;;;5.00;4.53;;;24.20;99.90;;;;;;5033949;28;20790;-78
2021/07/13 02:39:27;;;;;;;4.37;3.97;;;24.20;99.90;;;;;;5038886;28;20920;-78
2021/07/13 02:41:55;;;;;;;5.27;4.77;;;24.20;99.90;;;;;;5051358;28;20840;-78
2021/07/13 02:44:24;;;;;;;5.40;5.00;;;24.20;99.90;;;;;;5035055;28;20826;-78
2021/07/13 02:46:52;;;;;;;4.10;3.80;;;24.20;99.90;;;;;;5038669;28;20469;-78
2021/07/13 02:49:23;;;;;;;4.70;4.30;;;24.20;99.90;;;;;;5032057;28;20443;-78
2021/07/13 02:51:51;;;;;;;4.37;4.07;;;24.10;99.90;;;;;;5032800;28;20450;-78
2021/07/13 02:54:23;;;;;;;4.83;4.43;;;24.10;99.90;;;;;;5032166;28;20500;-78
2021/07/13 02:56:51;;;;;;;4.50;4.10;;;23.50;99.90;;;;;;5046733;28;20477;-78
2021/07/13 02:59:19;;;;;;;5.00;4.60;;;24.10;99.90;;;;;;5049243;28;20453;-77
2021/07/13 03:01:46;;;;;;;4.40;4.00;;;24.10;99.90;;;;;;5035380;28;20443;-78
2021/07/13 03:04:14;;;;;;;4.07;3.77;;;24.10;99.90;;;;;;5036114;28;20482;-77
2021/07/13 03:06:41;;;;;;;5.07;4.57;;;24.10;99.90;;;;;;5053120;28;20446;-77
2021/07/13 03:09:07;;;;;;;5.23;4.20;;;24.10;99.90;;;;;;5054684;28;20537;-77
2021/07/13 03:11:36;;;;;;;4.67;4.27;;;24.10;99.90;;;;;;5051374;28;20511;-77
2021/07/13 03:14:04;;;;;;;3.80;3.50;;;24.10;99.90;;;;;;5038612;28;20475;-77
2021/07/13 03:16:32;;;;;;;4.17;3.87;;;24.10;99.90;;;;;;5052182;28;20442;-77
2021/07/13 03:19:00;;;;;;;4.63;4.23;;;24.00;99.90;;;;;;5053551;28;20828;-77
2021/07/13 03:21:29;;;;;;;4.67;4.30;;;24.00;99.90;;;;;;5034472;28;20509;-77
2021/07/13 03:24:00;;;;;;;5.37;4.87;;;24.00;99.90;;;;;;5034052;28;20792;-77
2021/07/13 03:26:29;;;;;;;4.90;4.50;;;24.00;99.90;;;;;;5046724;28;20555;-77
2021/07/13 03:28:59;;;;;;;4.83;4.43;;;24.00;99.90;;;;;;5053834;28;20450;-77
2021/07/13 03:31:26;;;;;;;4.33;4.00;;;24.00;99.90;;;;;;5041618;28;20795;-76
2021/07/13 03:33:53;;;;;;;4.57;4.17;;;24.00;99.90;;;;;;5034359;28;20513;-76
2021/07/13 03:36:21;;;;;;;4.87;4.47;;;24.00;99.90;;;;;;5035543;28;20450;-76
2021/07/13 03:38:47;;;;;;;4.43;4.13;;;24.00;99.90;;;;;;5040609;28;20979;-77
2021/07/13 03:41:15;;;;;;;4.63;4.03;;;23.90;99.90;;;;;;5052637;28;20445;-76
2021/07/13 03:43:42;;;;;;;5.73;5.23;;;23.90;99.90;;;;;;5055264;28;20489;-76
2021/07/13 03:46:10;;;;;;;4.90;4.40;;;23.90;99.90;;;;;;5049367;28;20451;-76
2021/07/13 03:48:39;;;;;;;4.83;4.43;;;23.90;99.90;;;;;;5035255;28;21007;-76
2021/07/13 03:51:06;;;;;;;4.40;4.10;;;23.90;99.90;;;;;;5043915;28;20470;-76
2021/07/13 03:53:33;;;;;;;4.63;4.23;;;23.90;99.90;;;;;;5035184;28;20469;-76
2021/07/13 03:55:59;;;;;;;4.67;4.27;;;23.90;99.90;;;;;;5035918;28;20517;-76
2021/07/13 03:58:26;;;;;;;4.67;4.30;;;23.90;99.90;;;;;;5048716;28;20520;-76
2021/07/13 04:00:53;;;;;;;4.60;4.30;;;23.90;99.90;;;;;;5041734;28;20817;-76
2021/07/13 04:03:21;;;;;;;5.03;4.63;;;23.90;99.90;;;;;;5035601;28;20806;-76
2021/07/13 04:05:48;;;;;;;5.13;4.77;;;23.90;99.90;;;;;;5046247;28;20454;-78
2021/07/13 04:08:14;;;;;;;4.80;4.40;;;24.20;99.90;;;;;;5047232;28;20519;-78
2021/07/13 04:10:41;;;;;;;4.77;4.40;;;23.90;99.90;;;;;;5034346;28;20759;-79
2021/07/13 04:13:07;;;;;;;4.97;4.40;;;23.80;99.90;;;;;;5051635;28;20442;-76
2021/07/13 04:15:34;;;;;;;5.13;4.73;;;23.80;99.90;;;;;;5044059;28;20881;-76
2021/07/13 04:18:01;;;;;;;4.10;3.80;;;23.80;99.90;;;;;;5044689;28;20446;-76
2021/07/13 04:20:29;;;;;;;4.97;4.57;;;23.80;99.90;;;;;;5040129;28;20449;-76
2021/07/13 04:22:55;;;;;;;4.03;3.70;;;23.80;99.90;;;;;;5039571;28;20833;-76
2021/07/13 04:25:22;;;;;;;5.00;4.60;;;23.80;99.90;;;;;;5036026;28;20529;-76
2021/07/13 04:27:48;;;;;;;4.80;4.40;;;23.80;99.90;;;;;;5035667;28;20446;-76
2021/07/13 04:30:16;;;;;;;4.43;4.03;;;23.80;99.90;;;;;;5044912;28;20525;-77
2021/07/13 04:32:42;;;;;;;4.97;4.67;;;23.80;99.90;;;;;;5038156;28;20442;-77
2021/07/13 04:35:10;;;;;;;5.03;4.63;;;23.80;99.90;;;;;;5038333;28;20434;-77
2021/07/13 04:37:38;;;;;;;4.07;3.77;;;23.80;99.90;;;;;;5053746;28;20457;-79
2021/07/13 04:40:06;;;;;;;5.40;4.90;;;23.70;99.90;;;;;;5034078;28;20447;-79
2021/07/13 04:42:32;;;;;;;5.50;5.00;;;23.70;99.90;;;;;;5034181;28;20442;-79
2021/07/13 04:44:59;;;;;;;5.40;4.97;;;23.70;99.90;;;;;;5039074;28;20505;-79
2021/07/13 04:47:26;;;;;;;4.30;4.00;;;23.70;99.90;;;;;;5039426;28;20454;-79
2021/07/13 04:49:52;;;;;;;5.13;4.73;;;23.70;99.90;;;;;;5044639;28;20468;-79
2021/07/13 04:52:19;;;;;;;4.80;4.40;;;23.70;99.90;;;;;;5053908;28;20437;-79
2021/07/13 04:54:47;;;;;;;5.10;4.70;;;23.70;99.90;;;;;;5049283;28;20446;-79
2021/07/13 04:57:14;;;;;;;8.03;5.33;;;23.70;99.90;;;;;;5047298;28;20439;-80
2021/07/13 04:59:40;;;;;;;5.23;4.80;;;23.70;99.90;;;;;;5040966;28;20446;-80
2021/07/13 05:02:07;;;;;;;4.70;4.33;;;23.60;99.90;;;;;;5053674;28;20442;-80
2021/07/13 05:04:34;;;;;;;4.40;4.00;;;23.60;99.90;;;;;;5052443;28;20470;-79
2021/07/13 05:07:00;;;;;;;5.37;4.97;;;23.60;99.90;;;;;;5048947;28;20914;-80
2021/07/13 05:09:27;;;;;;;4.57;4.27;;;23.60;99.90;;;;;;5038811;28;20453;-80
2021/07/13 05:11:55;;;;;;;5.23;4.60;;;23.60;99.90;;;;;;5048185;28;20869;-79
2021/07/13 05:14:22;;;;;;;5.67;5.27;;;23.60;99.90;;;;;;5033308;28;20451;-80
2021/07/13 05:16:49;;;;;;;5.40;4.93;;;23.60;99.90;;;;;;5041095;28;20445;-80
2021/07/13 05:19:16;;;;;;;4.77;4.37;;;23.50;99.90;;;;;;5051657;28;20794;-79
2021/07/13 05:21:46;;;;;;;4.53;4.13;;;23.50;99.90;;;;;;5046370;28;20451;-79
2021/07/13 05:24:13;;;;;;;5.00;4.60;;;23.50;99.90;;;;;;5032590;28;20486;-79
2021/07/13 05:26:39;;;;;;;5.17;4.77;;;23.50;99.90;;;;;;5040326;28;20834;-78
2021/07/13 05:29:08;;;;;;;4.57;4.27;;;23.50;99.90;;;;;;5033218;28;20439;-79
2021/07/13 05:31:35;;;;;;;5.90;5.40;;;23.50;99.90;;;;;;5050566;28;20441;-79
2021/07/13 05:34:02;;;;;;;4.37;3.97;;;23.50;99.90;;;;;;5053347;28;20473;-79
2021/07/13 05:36:29;;;;;;;4.67;4.27;;;23.50;99.90;;;;;;5048542;28;20453;-78
2021/07/13 05:38:56;;;;;;;5.17;4.70;;;23.50;99.90;;;;;;5044686;28;20972;-78
2021/07/13 05:41:23;;;;;;;5.83;5.30;;;23.50;99.90;;;;;;5053022;28;20441;-78
2021/07/13 05:43:51;;;;;;;4.90;4.50;;;23.40;99.90;;;;;;5052908;28;20488;-78
2021/07/13 05:46:19;;;;;;;5.00;4.60;;;23.40;99.90;;;;;;5051087;28;20453;-79
2021/07/13 05:48:46;;;;;;;7.20;5.47;;;23.40;99.90;;;;;;5053433;28;20454;-78
2021/07/13 05:51:13;;;;;;;5.60;5.00;;;23.40;99.90;;;;;;5048913;28;20519;-80
2021/07/13 05:53:40;;;;;;;5.27;4.87;;;23.40;99.90;;;;;;5033934;28;20458;-80
2021/07/13 05:56:08;;;;;;;6.20;5.27;;;23.40;99.90;;;;;;5033536;28;20500;-80
2021/07/13 05:58:35;;;;;;;5.33;4.87;;;23.40;99.90;;;;;;5033057;28;20486;-80
2021/07/13 06:01:01;;;;;;;5.30;4.90;;;23.40;99.90;;;;;;5046730;28;20454;-80
2021/07/13 06:03:29;;;;;;;5.70;5.20;;;23.40;99.90;;;;;;5042847;28;20450;-80
2021/07/13 06:05:56;;;;;;;5.17;4.77;;;23.40;99.90;;;;;;5052923;28;20508;-80
2021/07/13 06:08:23;;;;;;;5.30;4.80;;;23.40;99.90;;;;;;5040652;28;20442;-80
2021/07/13 06:10:49;;;;;;;5.30;4.73;;;23.40;99.90;;;;;;5034829;28;20802;-80
2021/07/13 06:13:16;;;;;;;5.00;4.60;;;23.30;99.90;;;;;;5039434;28;20447;-81
2021/07/13 06:15:43;;;;;;;5.27;4.90;;;23.40;99.90;;;;;;5032789;28;20450;-81
2021/07/13 06:18:09;;;;;;;7.27;5.30;;;23.30;99.90;;;;;;5033176;28;20447;-80
2021/07/13 06:20:37;;;;;;;5.67;5.10;;;23.30;99.90;;;;;;5036653;28;20443;-80
2021/07/13 06:23:04;;;;;;;5.03;4.63;;;23.30;99.90;;;;;;5033498;28;20482;-81
2021/07/13 06:25:31;;;;;;;5.60;5.10;;;23.30;99.90;;;;;;5040215;28;20992;-83
2021/07/13 06:27:57;;;;;;;5.80;5.30;;;23.30;99.90;;;;;;5042075;28;20445;-83
2021/07/13 06:30:24;;;;;;;5.00;4.60;;;23.30;99.90;;;;;;5041527;28;20846;-79
2021/07/13 06:32:51;;;;;;;4.83;4.43;;;23.30;99.90;;;;;;5034152;28;20451;-77
2021/07/13 06:35:17;;;;;;;5.20;4.80;;;23.30;99.90;;;;;;5048086;28;20461;-80
2021/07/13 06:37:45;;;;;;;5.57;5.17;;;23.30;99.90;;;;;;5049475;28;20472;-79
2021/07/13 06:40:15;;;;;;;5.80;5.30;;;23.30;99.90;;;;;;5050098;28;20446;-77
2021/07/13 06:42:42;;;;;;;5.30;4.90;;;23.30;99.90;;;;;;5038518;28;20777;-77
2021/07/13 06:45:10;;;;;;;6.00;5.50;;;23.30;99.90;;;;;;5036499;28;20478;-79
2021/07/13 06:47:36;;;;;;;5.37;4.97;;;23.20;99.90;;;;;;5036586;28;20462;-79
2021/07/13 06:50:04;;;;;;;5.77;5.27;;;23.20;99.90;;;;;;5036283;28;20913;-80
2021/07/13 06:52:31;;;;;;;5.70;5.30;;;23.20;99.90;;;;;;5037090;28;20442;-80
2021/07/13 06:55:01;;;;;;;6.23;5.63;;;23.20;99.90;;;;;;5043318;28;20483;-80
2021/07/13 06:57:28;;;;;;;5.90;5.40;;;23.20;99.90;;;;;;5049540;28;20444;-79
2021/07/13 06:59:59;;;;;;;5.40;4.90;;;23.20;99.90;;;;;;5050894;28;20443;-80
2021/07/13 07:02:25;;;;;;;5.80;4.53;;;23.20;99.90;;;;;;5054568;28;20840;-80
2021/07/13 07:04:52;;;;;;;5.60;5.20;;;23.20;99.90;;;;;;5051444;28;20474;-80
2021/07/13 07:07:19;;;;;;;4.90;4.50;;;23.20;99.90;;;;;;5041877;28;20442;-80
2021/07/13 07:09:45;;;;;;;5.90;5.40;;;23.20;99.90;;;;;;5044363;28;20786;-78
2021/07/13 07:12:13;;;;;;;5.20;4.80;;;23.20;99.90;;;;;;5045043;28;20453;-78
2021/07/13 07:14:40;;;;;;;5.57;5.17;;;23.20;99.90;;;;;;5049579;28;20813;-80
2021/07/13 07:17:07;;;;;;;5.77;5.23;;;23.20;99.90;;;;;;5036618;28;20443;-80
2021/07/13 07:19:33;;;;;;;6.07;5.57;;;23.20;99.90;;;;;;5054554;28;20442;-78
2021/07/13 07:22:00;;;;;;;6.23;5.73;;;23.20;99.90;;;;;;5035307;28;20481;-79
2021/07/13 07:24:27;;;;;;;5.67;5.20;;;23.10;99.90;;;;;;5052211;28;20479;-79
2021/07/13 07:26:53;;;;;;;5.93;5.43;;;23.10;99.90;;;;;;5035449;28;20457;-80
2021/07/13 07:29:21;;;;;;;6.40;5.90;;;23.10;99.90;;;;;;5045346;28;20453;-83
2021/07/13 07:31:50;;;;;;;6.17;5.67;;;23.10;99.90;;;;;;5041462;28;20443;-80
2021/07/13 07:34:17;;;;;;;6.13;5.63;;;23.10;99.90;;;;;;5035630;28;20443;-80
2021/07/13 07:36:44;;;;;;;7.00;6.40;;;23.10;99.90;;;;;;5049778;28;20904;-80
2021/07/13 07:39:10;;;;;;;8.07;7.27;;;23.10;99.90;;;;;;5039132;28;20458;-79
2021/07/13 07:41:37;;;;;;;8.17;7.57;;;23.10;99.90;;;;;;5038916;28;20446;-80
2021/07/13 07:44:04;;;;;;;8.07;7.47;;;23.10;99.90;;;;;;5045843;28;20447;-80
2021/07/13 07:46:32;;;;;;;6.27;5.77;;;23.10;99.90;;;;;;5037567;28;20474;-80
2021/07/13 07:48:59;;;;;;;7.07;6.43;;;23.10;99.90;;;;;;5036229;28;20450;-80
2021/07/13 07:51:25;;;;;;;6.77;6.17;;;23.10;99.90;;;;;;5034917;28;20442;-80
2021/07/13 07:53:54;;;;;;;6.70;6.10;;;23.10;99.90;;;;;;5035122;28;20471;-80
2021/07/13 07:56:20;;;;;;;8.67;7.77;;;23.10;99.90;;;;;;5034373;28;20457;-80
2021/07/13 07:58:47;;;;;;;6.07;5.47;;;23.10;99.90;;;;;;5034923;28;20443;-80
2021/07/13 08:01:14;;;;;;;6.60;6.10;;;23.10;99.90;;;;;;5035343;28;20443;-79
2021/07/13 08:03:42;;;;;;;7.90;6.83;;;23.10;99.90;;;;;;5035234;28;20459;-79
2021/07/13 08:06:08;;;;;;;6.70;6.10;;;23.10;99.90;;;;;;5037995;28;20482;-79
2021/07/13 08:08:35;;;;;;;7.17;6.57;;;23.10;99.90;;;;;;5051266;28;20450;-79
2021/07/13 08:11:02;;;;;;;5.77;5.27;;;23.10;99.90;;;;;;5042607;28;20450;-79
2021/07/13 08:13:28;;;;;;;6.23;5.70;;;23.10;99.90;;;;;;5053269;28;20445;-79
2021/07/13 08:15:57;;;;;;;7.43;6.73;;;23.10;99.90;;;;;;5053350;28;20503;-79
2021/07/13 08:18:24;;;;;;;6.20;5.70;;;23.10;99.90;;;;;;5040880;28;20447;-78
2021/07/13 08:20:52;;;;;;;6.90;6.23;;;23.10;99.90;;;;;;5033230;28;20451;-79
2021/07/13 08:23:18;;;;;;;7.70;7.00;;;23.10;99.90;;;;;;5041393;28;20481;-78
2021/07/13 08:25:45;;;;;;;7.97;7.23;;;23.20;99.90;;;;;;5033030;28;20482;-77
2021/07/13 08:28:11;;;;;;;6.10;5.60;;;23.20;99.90;;;;;;5033232;28;20443;-78
2021/07/13 08:30:38;;;;;;;6.07;5.57;;;23.20;99.90;;;;;;5033120;28;20446;-77
2021/07/13 08:33:05;;;;;;;6.13;5.63;;;23.20;99.90;;;;;;5033090;28;20438;-77
2021/07/13 08:35:32;;;;;;;6.50;5.90;;;23.20;99.90;;;;;;5047737;28;20500;-86
2021/07/13 08:38:00;;;;;;;7.90;7.20;;;23.20;99.90;;;;;;5051766;28;20608;-78
2021/07/13 08:40:29;;;;;;;8.30;7.60;;;23.20;99.90;;;;;;5032857;28;20657;-79
2021/07/13 08:42:56;;;;;;;8.37;7.30;;;23.20;99.90;;;;;;5038958;28;20446;-82
2021/07/13 08:45:24;;;;;;;7.63;6.87;;;23.70;99.90;;;;;;5052158;28;20477;-79
2021/07/13 08:47:52;;;;;;;6.87;6.30;;;23.20;99.90;;;;;;5039013;28;20485;-81
2021/07/13 08:50:21;;;;;;;5.80;5.40;;;23.20;99.90;;;;;;5048125;28;20478;-80
2021/07/13 08:52:48;;;;;;;7.40;6.80;;;23.20;99.90;;;;;;5033231;28;20457;-87
2021/07/13 08:55:17;;;;;;;7.00;6.30;;;23.30;99.90;;;;;;5033712;28;20443;-92
2021/07/13 08:57:45;;;;;;;6.40;5.80;;;23.20;99.90;;;;;;5042048;28;21094;-90
2021/07/13 09:00:15;;;;;;;6.80;6.30;;;23.30;99.90;;;;;;5058363;28;20453;-92
2021/07/13 09:03:04;;;;;;;6.83;6.23;;;23.30;99.90;;;;;;5057943;28;20457;-81
2021/07/13 09:05:44;;;;;;;7.87;6.20;;;23.30;99.90;;;;;;5046638;28;20832;-80
2021/07/13 09:08:16;;;;;;;6.30;5.80;;;23.30;99.90;;;;;;5047107;28;20446;-81
2021/07/13 09:13:39;;;;;;;7.80;7.10;;;23.30;99.90;;;;;;5088802;28;20531;-76
2021/07/13 09:16:08;;;;;;;7.13;6.53;;;23.30;99.90;;;;;;5089051;28;20436;-77
2021/07/13 09:18:38;;;;;;;6.40;5.83;;;23.30;99.90;;;;;;5064294;28;20438;-77
2021/07/13 09:21:14;;;;;;;6.97;6.37;;;23.30;99.90;;;;;;5073755;28;20861;-77
2021/07/13 09:24:00;;;;;;;6.23;5.73;;;23.30;99.90;;;;;;5077007;28;20441;-77
2021/07/13 09:26:41;;;;;;;6.87;5.80;;;23.40;99.90;;;;;;5069349;28;20433;-77
2021/07/13 09:29:25;;;;;;;8.03;5.97;;;23.40;99.90;;;;;;5076185;28;20505;-76
2021/07/13 09:31:52;;;;;;;6.23;5.13;;;23.50;99.90;;;;;;5088943;28;20480;-76
2021/07/13 09:34:19;;;;;;;6.10;5.60;;;23.50;99.90;;;;;;5087056;28;20468;-76
2021/07/13 09:36:51;;;;;;;7.40;6.80;;;23.50;99.90;;;;;;5072631;28;20445;-76
2021/07/13 09:39:22;;;;;;;5.10;4.70;;;23.50;99.90;;;;;;5060063;28;20473;-76
2021/07/13 09:41:52;;;;;;;7.73;6.90;;;23.50;99.90;;;;;;5048378;28;20508;-76
2021/07/13 09:44:22;;;;;;;6.23;5.73;;;23.60;99.90;;;;;;5048839;28;20913;-76
2021/07/13 09:46:50;;;;;;;5.20;4.80;;;23.70;99.90;;;;;;5059662;28;20445;-77
2021/07/13 09:49:20;;;;;;;5.30;4.90;;;23.60;99.90;;;;;;5079697;28;20480;-77
2021/07/13 09:51:49;;;;;;;7.87;7.10;;;23.70;99.90;;;;;;5071907;28;20980;-77
2021/07/13 09:54:39;;;;;;;6.50;5.90;;;23.70;99.90;;;;;;5069953;28;20458;-76
2021/07/13 09:57:14;;;;;;;6.37;5.77;;;23.70;99.90;;;;;;5070891;28;20936;-76
2021/07/13 09:59:42;;;;;;;7.43;6.73;;;23.70;99.90;;;;;;5067778;28;20997;-83
2021/07/13 10:02:10;;;;;;;6.80;6.20;;;23.70;99.90;;;;;;5068197;28;20830;-82
2021/07/13 10:04:39;;;;;;;5.77;5.27;;;23.70;99.90;;;;;;5068279;28;20453;-81
2021/07/13 10:07:09;;;;;;;7.10;6.53;;;23.80;99.90;;;;;;5085814;28;20440;-81
2021/07/13 10:09:38;;;;;;;5.33;4.90;;;23.80;99.90;;;;;;5068725;28;20438;-81
2021/07/13 10:12:14;;;;;;;5.13;4.73;;;23.80;99.90;;;;;;5055277;28;20852;-81
2021/07/13 10:14:43;;;;;;;6.30;5.80;;;23.80;99.90;;;;;;5067781;28;20436;-80
2021/07/13 10:17:10;;;;;;;5.20;4.80;;;23.90;99.90;;;;;;5070023;28;20451;-80
2021/07/13 10:19:42;;;;;;;7.07;5.97;;;23.90;99.90;;;;;;5074641;28;20441;-80
2021/07/13 10:22:09;;;;;;;6.10;5.50;;;23.90;99.90;;;;;;5076816;28;20445;-82
2021/07/13 10:24:37;;;;;;;6.40;5.90;;;23.90;99.90;;;;;;5071284;28;20448;-80
2021/07/13 10:27:04;;;;;;;6.37;5.87;;;23.90;99.90;;;;;;5071862;28;20491;-82
2021/07/13 10:29:43;;;;;;;7.97;7.20;;;23.90;99.90;;;;;;5034313;28;20780;-83
2021/07/13 10:32:32;;;;;;;6.03;5.63;;;23.90;99.90;;;;;;5062618;28;20494;-81
2021/07/13 10:35:02;;;;;;;6.13;5.53;;;23.90;99.90;;;;;;5053098;28;20867;-81
2021/07/13 10:37:31;;;;;;;6.40;5.90;;;23.90;99.90;;;;;;5052786;28;20878;-83
2021/07/13 10:40:00;;;;;;;6.33;5.73;;;23.90;99.90;;;;;;5037803;28;20446;-81
2021/07/13 10:42:47;;;;;;;6.30;5.73;;;23.90;99.90;;;;;;5034335;28;20439;-81
2021/07/13 10:45:17;;;;;;;11.83;6.60;;;23.90;99.90;;;;;;5048893;28;20446;-81
2021/07/13 10:48:08;;;;;;;5.10;4.60;;;23.90;99.90;;;;;;5058451;28;20442;-82
2021/07/13 10:50:49;;;;;;;6.37;5.87;;;23.90;99.90;;;;;;5058227;28;20430;-82
2021/07/13 10:53:19;;;;;;;6.40;5.90;;;23.90;99.90;;;;;;5061405;28;20469;-81
2021/07/13 10:55:51;;;;;;;5.70;5.20;;;23.90;99.90;;;;;;5053581;28;20449;-82
2021/07/13 10:58:26;;;;;;;5.40;5.00;;;23.90;99.90;;;;;;5061301;28;20453;-82
2021/07/13 11:01:09;;;;;;;6.77;6.17;;;23.90;99.90;;;;;;5041862;28;20441;-82
2021/07/13 11:04:15;;;;;;;6.27;5.73;;;23.90;99.90;;;;;;5064343;28;22040;-82
2021/07/13 11:06:54;;;;;;;5.97;5.47;;;23.90;99.90;;;;;;5048055;28;20441;-83
2021/07/13 11:09:40;;;;;;;5.77;5.27;;;23.90;99.90;;;;;;5073933;28;20425;-82
2021/07/13 11:12:15;;;;;;;5.63;5.13;;;23.90;99.90;;;;;;5064990;28;20773;-83
2021/07/13 11:14:59;;;;;;;6.43;5.47;;;23.90;99.90;;;;;;5055027;28;20446;-82
2021/07/13 11:17:29;;;;;;;7.70;6.90;;;23.90;99.90;;;;;;5045144;28;20472;-83
2021/07/13 11:20:00;;;;;;;5.97;5.47;;;23.90;99.90;;;;;;5053835;28;20450;-82
2021/07/13 11:22:29;;;;;;;7.00;6.40;;;23.80;99.90;;;;;;5063915;28;20449;-82
2021/07/13 11:24:55;;;;;;;6.90;6.40;;;23.90;99.90;;;;;;5059360;28;20454;-83
2021/07/13 11:27:22;;;;;;;7.10;6.50;;;23.90;99.90;;;;;;5040613;28;20441;-83
2021/07/13 11:29:54;;;;;;;6.30;5.80;;;23.90;99.90;;;;;;5054024;28;20445;-83
2021/07/13 11:32:21;;;;;;;6.10;5.50;;;23.90;99.90;;;;;;5069447;28;21208;-83
2021/07/13 11:34:49;;;;;;;5.70;5.30;;;24.00;99.90;;;;;;5054069;28;20459;-83
2021/07/13 11:37:17;;;;;;;6.20;5.70;;;23.90;99.90;;;;;;5049524;28;20441;-83
2021/07/13 11:39:44;;;;;;;6.40;5.80;;;24.00;99.90;;;;;;5053798;28;20469;-83
2021/07/13 11:42:13;;;;;;;7.80;7.10;;;24.00;99.90;;;;;;5065527;28;20449;-83
2021/07/13 11:44:41;;;;;;;7.13;6.23;;;23.90;99.90;;;;;;5041545;28;20822;-83
2021/07/13 11:47:10;;;;;;;5.90;5.40;;;24.00;99.90;;;;;;5053431;28;20495;-82
2021/07/13 11:49:37;;;;;;;7.47;6.77;;;24.00;99.90;;;;;;5058951;28;20982;-82
2021/07/13 11:52:07;;;;;;;6.40;5.90;;;24.00;99.90;;;;;;5073023;28;20448;-84
2021/07/13 11:54:35;;;;;;;7.53;6.83;;;24.00;99.90;;;;;;5062639;28;20441;-83
2021/07/13 11:57:04;;;;;;;6.80;6.17;;;24.00;99.90;;;;;;5033480;28;20447;-83
2021/07/13 11:59:32;;;;;;;6.57;6.00;;;24.00;99.90;;;;;;5048584;28;20899;-83
2021/07/13 12:02:00;;;;;;;7.53;6.87;;;23.70;99.90;;;;;;5061990;28;20445;-84
2021/07/13 12:04:30;;;;;;;8.57;7.10;;;24.00;99.90;;;;;;5057730;28;20437;-80
2021/07/13 12:06:58;;;;;;;7.57;6.87;;;24.00;99.90;;;;;;5050212;28;20449;-80
2021/07/13 12:09:29;;;;;;;6.00;5.50;;;24.00;99.90;;;;;;5052606;28;20446;-81
2021/07/13 12:11:57;;;;;;;8.00;7.30;;;24.00;99.90;;;;;;5051716;28;20872;-80
2021/07/13 12:14:26;;;;;;;6.73;6.03;;;24.00;99.90;;;;;;5055874;28;20493;-80
2021/07/13 12:16:55;;;;;;;8.73;8.03;;;24.00;99.90;;;;;;5052421;28;20473;-80
2021/07/13 12:19:23;;;;;;;7.57;6.70;;;24.00;99.90;;;;;;5033431;28;20484;-80
2021/07/13 12:21:52;;;;;;;7.27;6.67;;;24.10;99.90;;;;;;5032735;28;20447;-81
2021/07/13 12:24:21;;;;;;;8.00;7.30;;;24.00;99.90;;;;;;5041362;28;20992;-81
2021/07/13 12:26:50;;;;;;;6.77;6.17;;;24.00;99.90;;;;;;5048811;28;20441;-80
2021/07/13 12:29:18;;;;;;;6.67;6.13;;;24.00;99.90;;;;;;5072390;28;20448;-80
2021/07/13 12:31:55;;;;;;;7.17;6.57;;;24.00;99.90;;;;;;5069906;28;20437;-80
2021/07/13 12:34:23;;;;;;;8.27;7.57;;;24.00;99.90;;;;;;5059948;28;20876;-80
2021/07/13 12:36:51;;;;;;;9.07;8.27;;;24.10;99.90;;;;;;5052037;28;20446;-80
2021/07/13 12:39:20;;;;;;;7.57;6.70;;;24.00;99.90;;;;;;5051908;28;20532;-80
2021/07/13 12:41:58;;;;;;;8.13;7.37;;;24.00;99.90;;;;;;5036957;28;20454;-80
2021/07/13 12:44:37;;;;;;;9.30;8.47;;;24.00;99.90;;;;;;5043489;28;20531;-80
2021/07/13 12:47:29;;;;;;;10.03;9.03;;;24.00;99.90;;;;;;5056105;28;20981;-82
2021/07/13 12:50:18;;;;;;;8.03;7.33;;;24.00;99.90;;;;;;5057456;28;20840;-81
2021/07/13 12:52:48;;;;;;;8.40;7.70;;;24.00;99.90;;;;;;5057160;28;20995;-81
2021/07/13 12:55:17;;;;;;;8.83;6.90;;;24.00;99.90;;;;;;5051311;28;20774;-83
2021/07/13 12:57:47;;;;;;;9.50;8.60;;;24.00;99.90;;;;;;5058882;28;20448;-82
2021/07/13 13:00:17;;;;;;;7.77;7.13;;;24.10;99.90;;;;;;5065816;28;20471;-82
2021/07/13 13:02:45;;;;;;;8.40;7.80;;;24.00;99.90;;;;;;5052692;28;20508;-83